Time;durP1;ratioP1;P1;durP2;ratioP2;P2;SDS_P1;SDS_P2;PMS_P1;PMS_P2;Temp;Humidity;BMP_temperature;BMP_pressure;BME280_temperature;BME280_humidity;BME280_pressure;Samples;Min_cycle;Max_cycle;Signal;HPM_P1;HPM_P2
2022/06/17 00:01:38;;;;;;;11.65;7.25;;;18.10;99.90;;;;;;5073088;28;20122;-54
2022/06/17 00:04:05;;;;;;;10.98;7.72;;;18.20;99.90;;;;;;5076770;28;20032;-54
2022/06/17 00:06:39;;;;;;;11.98;7.80;;;18.20;99.90;;;;;;5076759;28;20699;-53
2022/06/17 00:09:07;;;;;;;14.30;7.40;;;18.20;99.90;;;;;;5077192;28;20024;-54
2022/06/17 00:11:35;;;;;;;11.00;8.00;;;18.20;99.90;;;;;;5076820;28;20092;-53
2022/06/17 00:14:03;;;;;;;12.38;7.40;;;18.30;99.90;;;;;;5076925;28;20032;-53
2022/06/17 00:16:29;;;;;;;12.00;8.40;;;18.30;99.90;;;;;;5076552;28;20040;-53
2022/06/17 00:18:55;;;;;;;11.80;8.65;;;18.30;99.90;;;;;;5076866;28;20384;-53
2022/06/17 00:21:31;;;;;;;13.88;8.20;;;18.30;99.90;;;;;;5076898;28;20028;-53
2022/06/17 00:23:58;;;;;;;12.00;8.38;;;18.30;99.90;;;;;;5076686;28;20040;-53
2022/06/17 00:26:24;;;;;;;9.55;7.30;;;18.30;99.90;;;;;;5076606;28;20031;-54
2022/06/17 00:28:50;;;;;;;12.88;8.63;;;18.30;99.90;;;;;;5077035;28;20488;-54
2022/06/17 00:31:17;;;;;;;13.38;8.13;;;18.30;99.90;;;;;;5092338;28;20029;-54
2022/06/17 00:33:43;;;;;;;15.73;7.28;;;18.30;99.90;;;;;;5075027;28;20036;-54
2022/06/17 00:36:16;;;;;;;15.50;8.10;;;18.20;99.90;;;;;;5076609;28;20112;-53
2022/06/17 00:38:44;;;;;;;10.98;9.30;;;18.20;99.90;;;;;;5076113;28;20306;-53
2022/06/17 00:41:15;;;;;;;11.50;7.65;;;18.20;99.90;;;;;;5076455;28;20024;-53
2022/06/17 00:43:44;;;;;;;11.75;8.30;;;18.10;99.90;;;;;;5076388;28;20056;-53
2022/06/17 00:46:27;;;;;;;11.00;8.80;;;18.10;99.90;;;;;;5076143;28;20020;-54
2022/06/17 00:49:08;;;;;;;16.48;9.70;;;18.10;99.90;;;;;;5076472;28;20028;-54
2022/06/17 00:51:44;;;;;;;11.02;8.18;;;18.10;99.90;;;;;;5076017;28;20048;-54
2022/06/17 00:54:22;;;;;;;12.43;8.27;;;18.00;99.90;;;;;;5076340;28;20024;-54
2022/06/17 00:56:48;;;;;;;9.90;7.05;;;18.10;99.90;;;;;;5076389;28;20103;-54
2022/06/17 00:59:14;;;;;;;10.93;7.97;;;18.20;99.90;;;;;;5076160;28;20130;-54
2022/06/17 01:01:50;;;;;;;10.38;7.40;;;18.10;99.90;;;;;;5075863;28;20033;-54
2022/06/17 01:04:23;;;;;;;10.82;7.55;;;18.10;99.90;;;;;;5074703;28;20548;-54
2022/06/17 01:06:56;;;;;;;13.25;8.57;;;18.10;99.90;;;;;;5076089;28;20033;-53
2022/06/17 01:10:08;;;;;;;12.32;8.48;;;18.10;99.90;;;;;;5076036;28;20047;-54
2022/06/17 01:12:32;;;;;;;11.48;7.90;;;18.10;99.90;;;;;;5090158;28;20456;-54
2022/06/17 01:14:59;;;;;;;10.75;7.63;;;18.10;99.90;;;;;;5074921;28;20025;-54
2022/06/17 01:17:26;;;;;;;10.88;7.90;;;18.20;99.90;;;;;;5074328;28;20032;-54
2022/06/17 01:20:00;;;;;;;12.13;8.30;;;18.20;99.90;;;;;;5091386;28;20038;-54
2022/06/17 01:22:43;;;;;;;16.17;9.93;;;18.10;99.90;;;;;;5074041;28;20462;-53
2022/06/17 01:25:15;;;;;;;;;;;18.10;99.90;;;;;;5076189;28;20087;-54
2022/06/17 01:27:46;;;;;;;12.05;8.32;;;18.10;99.90;;;;;;5090712;28;19923;-53
2022/06/17 01:30:14;;;;;;;;;;;18.10;99.90;;;;;;5075908;28;20028;-54
2022/06/17 01:32:52;;;;;;;14.70;9.00;;;18.10;99.90;;;;;;5107751;28;19961;-54
2022/06/17 01:35:19;;;;;;;13.88;9.45;;;18.10;99.90;;;;;;5074168;28;20033;-54
2022/06/17 01:37:46;;;;;;;9.98;8.20;;;18.10;99.90;;;;;;5075176;28;20082;-54
2022/06/17 01:40:13;;;;;;;11.52;9.20;;;18.00;99.90;;;;;;5075235;28;20481;-54
2022/06/17 01:42:40;;;;;;;13.85;8.57;;;18.00;99.90;;;;;;5075320;28;20466;-54
2022/06/17 01:45:08;;;;;;;12.15;8.57;;;18.00;99.90;;;;;;5073955;28;20035;-54
2022/06/17 01:47:36;;;;;;;12.68;9.40;;;18.00;99.90;;;;;;5074961;28;20029;-54
2022/06/17 01:50:11;;;;;;;13.15;9.00;;;17.90;99.90;;;;;;5073913;28;20024;-54
2022/06/17 01:52:39;;;;;;;14.35;8.70;;;17.90;99.90;;;;;;5073479;28;20175;-54
2022/06/17 01:55:14;;;;;;;14.15;8.63;;;17.80;99.90;;;;;;5075160;28;20042;-54
2022/06/17 01:57:51;;;;;;;14.45;9.23;;;17.80;99.90;;;;;;5073443;28;20118;-54
2022/06/17 02:00:24;;;;;;;17.63;9.68;;;17.70;99.90;;;;;;5073687;28;20035;-54
2022/06/17 02:03:23;;;;;;;11.77;8.38;;;17.70;99.90;;;;;;5073540;28;20029;-54
2022/06/17 02:06:11;;;;;;;17.25;9.82;;;17.70;99.90;;;;;;5061118;28;20043;-54
2022/06/17 02:08:38;;;;;;;16.58;9.70;;;17.70;99.90;;;;;;5073388;28;20045;-54
2022/06/17 02:11:07;;;;;;;12.90;9.57;;;17.70;99.90;;;;;;5073509;28;20052;-54
2022/06/17 02:13:35;;;;;;;12.45;9.55;;;17.60;99.90;;;;;;5073229;28;20025;-54
2022/06/17 02:16:27;;;;;;;13.05;8.98;;;17.60;99.90;;;;;;5071139;28;20345;-54
2022/06/17 02:19:05;;;;;;;15.52;9.65;;;17.60;99.90;;;;;;5073458;28;20040;-54
2022/06/17 02:21:38;;;;;;;15.02;9.77;;;17.50;99.90;;;;;;5073109;28;20036;-55
2022/06/17 02:24:05;;;;;;;18.80;9.85;;;17.60;99.90;;;;;;5073302;28;20029;-54
2022/06/17 02:26:33;;;;;;;14.90;9.50;;;17.60;99.90;;;;;;5074293;28;20067;-54
2022/06/17 02:29:04;;;;;;;13.63;9.25;;;17.60;99.90;;;;;;5073114;28;20025;-54
2022/06/17 02:31:31;;;;;;;14.82;9.98;;;17.50;99.90;;;;;;5074200;28;20032;-54
2022/06/17 02:33:57;;;;;;;19.90;9.82;;;17.50;99.90;;;;;;5072912;28;20040;-54
2022/06/17 02:36:47;;;;;;;15.38;10.20;;;17.50;99.90;;;;;;5073019;28;20036;-54
2022/06/17 02:39:13;;;;;;;19.85;10.18;;;17.40;99.90;;;;;;5074050;28;20029;-54
2022/06/17 02:41:45;;;;;;;19.83;10.98;;;17.50;99.90;;;;;;5072683;28;20444;-54
2022/06/17 02:44:20;;;;;;;20.48;10.43;;;17.40;99.90;;;;;;5072978;28;20042;-54
2022/06/17 02:46:49;;;;;;;13.80;9.27;;;17.30;99.90;;;;;;5072742;28;20225;-54
2022/06/17 02:49:24;;;;;;;12.23;9.45;;;17.30;99.90;;;;;;5072888;28;20078;-54
2022/06/17 02:51:51;;;;;;;15.98;9.63;;;17.30;99.90;;;;;;5072603;28;20052;-54
2022/06/17 02:54:44;;;;;;;15.18;10.13;;;17.20;99.90;;;;;;5089655;28;20024;-54
2022/06/17 02:57:18;;;;;;;14.10;9.57;;;17.20;99.90;;;;;;5072797;28;20033;-54
2022/06/17 02:59:51;;;;;;;12.63;9.85;;;17.20;99.90;;;;;;5073738;28;20034;-54
2022/06/17 03:02:30;;;;;;;11.40;8.95;;;17.10;99.90;;;;;;5072742;28;20085;-54
2022/06/17 03:04:59;;;;;;;12.10;9.05;;;17.00;99.90;;;;;;5072654;28;20036;-54
2022/06/17 03:07:29;;;;;;;13.10;9.73;;;17.00;99.90;;;;;;5072484;28;20032;-54
2022/06/17 03:10:17;;;;;;;14.23;9.98;;;16.90;99.90;;;;;;5072743;28;20375;-54
2022/06/17 03:12:45;;;;;;;13.68;10.13;;;16.80;99.90;;;;;;5072454;28;20055;-54
2022/06/17 03:15:16;;;;;;;12.55;9.02;;;16.80;99.90;;;;;;5072404;28;20029;-54
2022/06/17 03:17:45;;;;;;;13.65;9.15;;;16.80;99.90;;;;;;5072408;28;20557;-53
2022/06/17 03:20:20;;;;;;;14.05;9.30;;;16.80;99.90;;;;;;5072653;28;20028;-54
2022/06/17 03:22:49;;;;;;;13.50;9.82;;;16.80;99.90;;;;;;5072345;28;20033;-54
2022/06/17 03:25:22;;;;;;;14.63;9.82;;;16.80;99.90;;;;;;5072768;28;20035;-54
2022/06/17 03:27:56;;;;;;;20.65;10.68;;;16.80;99.90;;;;;;5072314;28;20032;-54
2022/06/17 03:30:46;;;;;;;15.52;10.90;;;16.80;99.90;;;;;;5073768;28;20016;-54
2022/06/17 03:33:25;;;;;;;20.45;12.15;;;16.80;99.90;;;;;;5071816;28;20055;-54
2022/06/17 03:35:57;;;;;;;17.95;11.43;;;16.80;99.90;;;;;;5106065;28;20504;-54
2022/06/17 03:38:40;;;;;;;19.45;11.63;;;16.80;99.90;;;;;;5109027;28;20032;-54
2022/06/17 03:41:16;;;;;;;19.77;12.05;;;16.80;99.90;;;;;;5090032;28;20032;-54
2022/06/17 03:43:51;;;;;;;16.90;10.63;;;16.90;99.90;;;;;;5089703;28;20036;-54
2022/06/17 03:46:22;;;;;;;21.23;11.55;;;16.90;99.90;;;;;;5089700;28;20068;-54
2022/06/17 03:49:16;;;;;;;19.58;11.70;;;16.90;99.90;;;;;;5089959;28;20052;-54
2022/06/17 03:51:43;;;;;;;16.63;10.95;;;16.90;99.90;;;;;;5072359;28;20135;-54
2022/06/17 03:54:16;;;;;;;17.98;12.07;;;16.90;99.90;;;;;;5057740;28;20047;-54
2022/06/17 03:56:47;;;;;;;16.33;11.30;;;17.00;99.90;;;;;;5057408;28;20028;-54
2022/06/17 03:59:20;;;;;;;22.50;11.27;;;17.10;99.90;;;;;;5089690;28;20120;-54
2022/06/17 04:01:54;;;;;;;23.67;12.25;;;17.20;99.90;;;;;;5089492;28;20037;-54
2022/06/17 04:04:30;;;;;;;26.88;14.18;;;17.20;99.90;;;;;;5089340;28;20025;-54
2022/06/17 04:07:00;;;;;;;30.63;14.45;;;17.30;99.90;;;;;;5089332;28;20040;-54
2022/06/17 04:09:31;;;;;;;25.20;12.82;;;17.50;99.90;;;;;;5055519;28;20032;-54
2022/06/17 04:12:05;;;;;;;23.35;13.02;;;17.50;99.90;;;;;;5055859;28;20025;-54
2022/06/17 04:14:46;;;;;;;20.95;12.65;;;17.70;99.90;;;;;;5089006;28;20029;-54
2022/06/17 04:17:36;;;;;;;23.35;13.60;;;17.80;99.90;;;;;;5055611;28;20064;-54
2022/06/17 04:20:43;;;;;;;24.52;13.43;;;17.90;99.90;;;;;;5055704;28;20035;-54
2022/06/17 04:23:16;;;;;;;29.25;13.38;;;18.10;99.90;;;;;;5057046;28;20032;-54
2022/06/17 04:26:29;;;;;;;31.08;17.25;;;18.20;99.90;;;;;;5048019;28;20044;-54
2022/06/17 04:29:04;;;;;;;30.73;16.65;;;18.30;99.90;;;;;;5089090;28;20486;-54
2022/06/17 04:31:34;;;;;;;27.50;16.52;;;18.40;99.90;;;;;;5088661;28;20032;-54
2022/06/17 04:34:19;;;;;;;30.30;15.65;;;18.50;99.90;;;;;;5071716;28;20032;-54
2022/06/17 04:36:55;;;;;;;26.50;16.10;;;18.60;99.90;;;;;;5075299;28;20032;-55
2022/06/17 04:39:38;;;;;;;27.17;16.92;;;18.70;99.90;;;;;;5074828;28;20032;-54
2022/06/17 04:42:24;;;;;;;27.17;16.80;;;18.70;99.90;;;;;;5075267;28;20035;-54
2022/06/17 04:44:53;;;;;;;38.97;17.50;;;18.90;99.90;;;;;;5075393;28;20531;-54
2022/06/17 04:47:21;;;;;;;30.63;17.23;;;18.90;99.90;;;;;;5092039;28;20028;-54
2022/06/17 04:50:09;;;;;;;28.55;16.63;;;19.00;99.90;;;;;;5073947;28;20124;-54
2022/06/17 04:52:48;;;;;;;32.88;18.02;;;19.10;99.90;;;;;;5091452;28;20075;-54
2022/06/17 04:55:41;;;;;;;36.70;18.33;;;19.20;99.90;;;;;;5074906;28;20031;-54
2022/06/17 04:58:19;;;;;;;29.75;15.82;;;19.30;99.90;;;;;;5091845;28;20059;-54
2022/06/17 05:00:54;;;;;;;29.27;17.13;;;19.40;99.90;;;;;;5074687;28;20505;-54
2022/06/17 05:03:30;;;;;;;28.58;17.02;;;19.40;99.90;;;;;;5074507;28;20122;-54
2022/06/17 05:06:07;;;;;;;25.98;15.75;;;19.60;99.90;;;;;;5074810;28;20089;-54
2022/06/17 05:08:46;;;;;;;26.88;15.63;;;19.60;99.90;;;;;;5075975;28;20040;-54
2022/06/17 05:11:24;;;;;;;24.20;15.85;;;19.60;99.90;;;;;;5074167;28;20032;-54
2022/06/17 05:14:01;;;;;;;37.20;18.83;;;19.70;99.90;;;;;;5073281;28;20111;-54
2022/06/17 05:16:27;;;;;;;38.15;17.73;;;19.80;99.90;;;;;;5103601;28;20116;-54
2022/06/17 05:18:54;;;;;;;39.13;19.60;;;19.80;99.90;;;;;;5088086;28;20426;-54
2022/06/17 05:21:23;;;;;;;39.30;18.45;;;20.00;99.90;;;;;;5073336;28;20044;-54
2022/06/17 05:23:56;;;;;;;39.75;20.17;;;20.10;99.90;;;;;;5099965;27;20035;-54
2022/06/17 05:26:26;;;;;;;34.42;18.73;;;20.20;99.90;;;;;;5091143;28;20071;-54
2022/06/17 05:28:54;;;;;;;33.13;18.80;;;20.40;99.90;;;;;;5090216;28;20029;-54
2022/06/17 05:31:24;;;;;;;34.08;21.15;;;20.40;99.90;;;;;;5074834;28;20029;-54
2022/06/17 05:33:55;;;;;;;33.67;19.63;;;20.60;99.90;;;;;;5108713;28;20386;-54
2022/06/17 05:36:22;;;;;;;27.45;17.85;;;20.70;99.90;;;;;;5074158;28;20031;-54
2022/06/17 05:38:49;;;;;;;37.15;18.48;;;20.90;99.90;;;;;;5069494;28;20117;-54
2022/06/17 05:41:19;;;;;;;30.15;16.30;;;21.10;99.90;;;;;;5104660;28;20020;-54
2022/06/17 05:43:49;;;;;;;39.58;17.88;;;21.20;99.90;;;;;;5086351;28;20163;-54
2022/06/17 05:46:34;;;;;;;39.60;19.98;;;21.30;99.90;;;;;;5072645;28;20032;-54
2022/06/17 05:49:27;;;;;;;41.45;17.33;;;21.50;99.90;;;;;;5043655;28;20036;-55
2022/06/17 05:51:58;;;;;;;32.53;14.55;;;21.70;99.90;;;;;;5070930;28;20037;-55
2022/06/17 05:54:30;;;;;;;27.80;13.77;;;21.80;99.90;;;;;;5066539;28;20029;-54
2022/06/17 05:57:07;;;;;;;21.13;11.82;;;21.90;99.90;;;;;;5101322;27;20085;-54
2022/06/17 05:59:33;;;;;;;22.48;11.70;;;22.00;99.90;;;;;;5106637;28;20032;-54
2022/06/17 06:01:59;;;;;;;22.25;12.18;;;22.00;99.90;;;;;;5070389;28;20409;-54
2022/06/17 06:04:43;;;;;;;25.52;11.27;;;22.10;99.90;;;;;;5084992;28;20025;-54
2022/06/17 06:07:09;;;;;;;20.65;11.52;;;22.20;99.90;;;;;;5099669;28;20035;-54
2022/06/17 06:09:40;;;;;;;29.80;11.05;;;22.30;99.90;;;;;;5084234;28;20036;-54
2022/06/17 06:12:08;;;;;;;13.93;8.10;;;22.40;99.90;;;;;;5083293;28;20554;-55
2022/06/17 06:14:34;;;;;;;16.70;9.15;;;22.50;99.90;;;;;;5070867;28;20067;-54
2022/06/17 06:17:00;;;;;;;13.38;7.28;;;22.60;99.90;;;;;;5069039;28;20025;-54
2022/06/17 06:19:27;;;;;;;13.98;6.40;;;22.80;99.90;;;;;;5084163;28;20530;-54
2022/06/17 06:21:53;;;;;;;18.35;7.07;;;22.70;99.90;;;;;;5065239;28;20111;-54
2022/06/17 06:24:19;;;;;;;9.80;5.53;;;22.80;99.90;;;;;;5085233;28;20066;-55
2022/06/17 06:26:45;;;;;;;11.90;6.07;;;22.90;99.90;;;;;;5084478;28;20058;-55
2022/06/17 06:29:20;;;;;;;15.93;6.40;;;23.10;99.90;;;;;;5088708;28;20020;-55
2022/06/17 06:31:48;;;;;;;17.02;6.20;;;23.30;99.90;;;;;;5070643;28;20025;-55
2022/06/17 06:34:34;;;;;;;13.25;5.72;;;23.40;99.90;;;;;;5088633;28;20032;-55
2022/06/17 06:37:01;;;;;;;;;;;23.50;99.90;;;;;;5090200;28;20035;-55
2022/06/17 06:39:27;;;;;;;20.60;6.85;;;23.60;99.90;;;;;;5106146;28;19912;-55
2022/06/17 06:41:57;;;;;;;14.18;6.70;;;23.70;99.90;;;;;;5073118;28;20040;-55
2022/06/17 06:44:26;;;;;;;11.55;6.15;;;23.80;99.90;;;;;;5074075;28;20032;-55
2022/06/17 06:47:21;;;;;;;12.75;6.32;;;23.90;98.90;;;;;;5071359;28;20039;-55
2022/06/17 06:50:13;;;;;;;12.27;6.78;;;23.80;99.90;;;;;;5070873;28;20062;-55
2022/06/17 06:52:39;;;;;;;15.73;7.20;;;24.00;99.90;;;;;;5072335;28;20510;-55
2022/06/17 06:55:06;;;;;;;15.75;7.10;;;24.10;99.90;;;;;;5073930;28;20112;-55
2022/06/17 06:57:32;;;;;;;21.02;10.43;;;24.20;99.90;;;;;;5072362;28;20062;-55
2022/06/17 07:00:07;;;;;;;19.73;11.27;;;24.40;99.90;;;;;;5072587;28;20062;-55
2022/06/17 07:02:34;;;;;;;20.40;10.35;;;24.50;97.80;;;;;;5089293;28;20033;-55
2022/06/17 07:05:00;;;;;;;18.63;10.07;;;24.60;97.50;;;;;;5072659;28;20055;-55
2022/06/17 07:07:26;;;;;;;27.27;11.75;;;24.80;98.20;;;;;;5072106;28;20033;-55
2022/06/17 07:09:52;;;;;;;29.83;12.77;;;25.10;99.90;;;;;;5071885;28;20107;-55
2022/06/17 07:12:19;;;;;;;25.52;11.77;;;25.30;97.90;;;;;;5083405;28;20016;-55
2022/06/17 07:14:45;;;;;;;16.35;9.82;;;25.70;95.90;;;;;;5073475;28;20048;-55
2022/06/17 07:17:12;;;;;;;23.45;10.88;;;25.90;93.10;;;;;;5073962;28;20028;-55
2022/06/17 07:19:37;;;;;;;17.02;10.02;;;25.90;95.40;;;;;;5075379;28;20074;-55
2022/06/17 07:22:03;;;;;;;20.13;10.32;;;25.90;91.60;;;;;;5074360;28;20024;-55
2022/06/17 07:24:29;;;;;;;22.00;10.70;;;25.80;90.80;;;;;;5074265;28;20033;-55
2022/06/17 07:26:55;;;;;;;26.15;10.00;;;25.90;90.30;;;;;;5073448;28;20025;-55
2022/06/17 07:29:24;;;;;;;28.55;11.65;;;25.60;95.10;;;;;;5073424;28;20366;-55
2022/06/17 07:31:51;;;;;;;21.60;10.95;;;25.90;91.00;;;;;;5072618;28;20028;-55
2022/06/17 07:34:16;;;;;;;20.90;10.35;;;25.90;90.70;;;;;;5073325;28;20111;-55
2022/06/17 07:42:11;;;;;;;23.58;9.18;;;26.00;92.60;;;;;;5073606;28;20088;-55
2022/06/17 07:44:37;;;;;;;35.33;11.65;;;26.00;89.80;;;;;;5073142;28;20130;-55
2022/06/17 07:47:04;;;;;;;20.40;7.80;;;26.00;90.10;;;;;;5073362;28;20028;-55
2022/06/17 07:49:30;;;;;;;10.85;5.10;;;25.90;91.40;;;;;;5073328;28;20074;-55
2022/06/17 07:51:56;;;;;;;21.17;6.97;;;26.00;87.00;;;;;;5073232;28;20040;-55
2022/06/17 07:54:22;;;;;;;15.95;6.40;;;26.30;90.80;;;;;;5073247;28;20028;-55
2022/06/17 07:56:48;;;;;;;12.48;5.78;;;26.60;89.60;;;;;;5073350;28;20068;-55
2022/06/17 07:59:14;;;;;;;9.55;5.25;;;27.00;83.80;;;;;;5073155;28;20032;-55
2022/06/17 08:01:40;;;;;;;28.27;6.22;;;27.30;78.70;;;;;;5073239;28;20025;-55
2022/06/17 08:04:06;;;;;;;15.93;4.95;;;27.10;79.70;;;;;;5073489;28;20041;-55
2022/06/17 08:06:32;;;;;;;13.00;4.53;;;27.10;73.50;;;;;;5072772;28;20032;-55
2022/06/17 08:08:59;;;;;;;11.27;4.95;;;27.30;74.60;;;;;;5070129;28;20111;-55
2022/06/17 08:11:25;;;;;;;13.43;4.75;;;27.40;71.90;;;;;;5072480;28;20036;-55
2022/06/17 08:13:51;;;;;;;15.60;5.82;;;27.30;73.40;;;;;;5073033;28;20020;-55
2022/06/17 08:16:16;;;;;;;11.10;4.25;;;27.40;70.40;;;;;;5072565;28;20035;-55
2022/06/17 08:18:43;;;;;;;9.75;3.78;;;27.50;70.60;;;;;;5073308;28;20039;-55
2022/06/17 08:21:11;;;;;;;11.75;4.63;;;27.50;67.60;;;;;;5072562;28;20498;-55
2022/06/17 08:23:36;;;;;;;13.68;4.70;;;27.70;67.20;;;;;;5073258;28;20019;-55
2022/06/17 08:26:03;;;;;;;8.70;4.60;;;27.60;69.00;;;;;;5076354;28;20381;-55
2022/06/17 08:28:31;;;;;;;13.23;4.32;;;27.70;66.10;;;;;;5075594;28;20040;-55
2022/06/17 08:30:58;;;;;;;5.95;4.28;;;27.90;69.80;;;;;;5076462;28;20033;-55
2022/06/17 08:33:29;;;;;;;7.97;4.30;;;28.30;69.50;;;;;;5075900;28;20381;-55
2022/06/17 08:36:06;;;;;;;5.97;3.72;;;28.60;66.20;;;;;;5075986;28;20047;-55
2022/06/17 08:38:34;;;;;;;11.18;4.28;;;28.60;62.10;;;;;;5075270;28;20028;-55
2022/06/17 08:41:16;;;;;;;10.90;4.55;;;28.30;63.70;;;;;;5075634;28;20032;-55
2022/06/17 08:43:42;;;;;;;8.88;4.55;;;28.40;64.90;;;;;;5075738;28;20052;-55
2022/06/17 08:46:45;;;;;;;12.95;4.95;;;28.60;65.90;;;;;;5077267;28;20025;-55
2022/06/17 08:49:28;;;;;;;12.48;4.50;;;28.80;65.50;;;;;;5076701;28;20032;-55
2022/06/17 08:52:23;;;;;;;9.68;4.70;;;29.10;63.00;;;;;;5073758;28;20490;-55
2022/06/17 08:55:21;;;;;;;11.50;4.93;;;29.30;63.10;;;;;;5021798;28;20170;-55
2022/06/17 08:58:06;;;;;;;20.88;6.68;;;29.40;63.10;;;;;;5059020;28;20142;-55
2022/06/17 09:01:03;;;;;;;8.55;4.28;;;29.50;60.20;;;;;;5074674;28;20099;-54
2022/06/17 09:04:08;;;;;;;9.02;4.93;;;29.50;58.60;;;;;;5075064;28;20028;-55
2022/06/17 09:06:43;;;;;;;10.10;5.25;;;28.90;60.70;;;;;;5052389;28;20033;-55
2022/06/17 09:09:30;;;;;;;9.98;4.00;;;28.70;63.80;;;;;;5049625;28;20533;-55
2022/06/17 09:12:12;;;;;;;20.00;6.70;;;28.50;65.30;;;;;;5050157;28;20045;-55
2022/06/17 09:15:02;;;;;;;10.25;5.10;;;28.10;67.90;;;;;;5042461;28;20479;-54
2022/06/17 09:17:48;;;;;;;13.55;5.53;;;27.60;68.30;;;;;;5056771;28;20048;-55
2022/06/17 09:20:19;;;;;;;10.40;5.85;;;27.60;69.50;;;;;;5067125;28;20033;-55
2022/06/17 09:22:50;;;;;;;13.07;5.40;;;27.90;78.30;;;;;;5045667;28;20085;-55
2022/06/17 09:25:23;;;;;;;7.35;4.10;;;28.30;69.20;;;;;;5044624;28;20147;-55
2022/06/17 09:27:56;;;;;;;40.92;23.60;;;28.40;69.70;;;;;;5045700;28;20071;-55
2022/06/17 09:30:34;;;;;;;18.45;14.63;;;28.60;61.70;;;;;;5056856;28;20043;-55
2022/06/17 09:33:10;;;;;;;17.77;9.82;;;28.80;61.00;;;;;;5049173;28;20037;-55
2022/06/17 09:35:50;;;;;;;6.82;3.92;;;29.00;59.60;;;;;;5043115;28;20552;-55
2022/06/17 09:38:25;;;;;;;6.43;4.53;;;29.40;58.70;;;;;;5063823;28;20130;-55
2022/06/17 09:41:11;;;;;;;5.60;3.38;;;29.60;58.40;;;;;;5074688;28;20033;-55
2022/06/17 09:43:53;;;;;;;10.43;3.95;;;29.50;57.50;;;;;;5074994;28;20123;-55
2022/06/17 09:46:40;;;;;;;7.90;3.45;;;29.90;54.00;;;;;;5072312;28;20056;-55
2022/06/17 09:49:34;;;;;;;8.77;3.75;;;30.00;55.70;;;;;;5072659;28;20032;-55
2022/06/17 09:52:18;;;;;;;6.13;3.67;;;29.50;54.70;;;;;;5069436;28;20105;-55
2022/06/17 09:54:47;;;;;;;9.23;3.08;;;29.60;55.50;;;;;;5067889;28;20534;-55
2022/06/17 09:57:22;;;;;;;7.05;3.08;;;29.80;54.70;;;;;;5071608;28;20544;-55
2022/06/17 10:00:03;;;;;;;6.53;2.67;;;30.20;54.60;;;;;;5072127;28;20060;-55
2022/06/17 10:02:51;;;;;;;11.63;3.47;;;30.30;53.30;;;;;;5073975;28;20436;-55
2022/06/17 10:05:20;;;;;;;9.75;3.70;;;30.80;53.80;;;;;;5070470;28;20032;-55
2022/06/17 10:08:03;;;;;;;5.32;2.80;;;31.00;52.10;;;;;;5073507;28;20028;-55
2022/06/17 10:10:48;;;;;;;10.02;3.88;;;29.90;52.00;;;;;;5073638;28;20549;-55
2022/06/17 10:13:42;;;;;;;6.28;3.28;;;30.30;54.70;;;;;;5074289;28;20036;-55
2022/06/17 10:19:37;;;;;;;7.60;3.38;;;29.60;54.90;;;;;;5074209;28;20071;-55
2022/06/17 10:22:28;;;;;;;10.40;3.97;;;30.20;53.50;;;;;;5074255;28;20498;-55
2022/06/17 10:25:25;;;;;;;10.85;3.92;;;30.80;53.90;;;;;;5072673;28;20103;-55
2022/06/17 10:28:24;;;;;;;15.70;4.18;;;31.00;51.00;;;;;;5074583;28;20025;-55
2022/06/17 10:30:59;;;;;;;8.85;3.35;;;30.70;50.00;;;;;;5071665;28;20024;-55
2022/06/17 10:33:30;;;;;;;7.00;3.40;;;31.00;50.90;;;;;;5072933;28;20051;-55
2022/06/17 10:36:01;;;;;;;10.40;4.15;;;31.00;52.80;;;;;;5072585;28;20382;-55
2022/06/17 10:38:32;;;;;;;13.10;4.93;;;30.90;52.30;;;;;;5073064;28;20024;-55
2022/06/17 10:41:00;;;;;;;11.55;4.07;;;29.90;54.60;;;;;;5070436;28;20143;-55
2022/06/17 10:43:38;;;;;;;15.88;4.03;;;30.30;55.00;;;;;;5070120;28;20037;-55
2022/06/17 10:46:05;;;;;;;7.32;2.60;;;31.00;51.90;;;;;;5070621;28;20487;-55
2022/06/17 10:48:42;;;;;;;10.73;4.10;;;30.80;51.10;;;;;;5072168;28;20053;-55
2022/06/17 10:51:11;;;;;;;6.67;3.30;;;30.90;51.90;;;;;;5070826;28;20165;-55
2022/06/17 10:53:52;;;;;;;8.63;3.28;;;30.80;50.10;;;;;;5073703;28;20423;-55
2022/06/17 10:56:31;;;;;;;8.23;3.40;;;30.80;50.00;;;;;;5072595;28;20025;-55
2022/06/17 10:59:07;;;;;;;9.02;3.05;;;31.00;53.90;;;;;;5074092;28;20147;-55
2022/06/17 11:01:45;;;;;;;6.90;3.22;;;30.90;48.40;;;;;;5073235;28;20033;-55
2022/06/17 11:04:18;;;;;;;9.35;2.55;;;30.80;51.30;;;;;;5072424;28;20032;-55
2022/06/17 11:07:14;;;;;;;9.40;3.28;;;30.90;49.30;;;;;;5073388;28;20381;-55
2022/06/17 11:09:46;;;;;;;10.23;3.47;;;30.80;50.10;;;;;;5073246;28;20398;-54
2022/06/17 11:12:21;;;;;;;6.88;3.13;;;30.50;48.90;;;;;;5073716;28;20108;-55
2022/06/17 11:14:47;;;;;;;8.00;3.00;;;30.40;50.30;;;;;;5073473;28;20035;-55
2022/06/17 11:17:28;;;;;;;12.57;3.60;;;30.20;49.40;;;;;;5074001;28;20092;-55
2022/06/17 11:19:58;;;;;;;8.75;2.60;;;29.90;51.10;;;;;;5073537;28;20051;-55
2022/06/17 11:22:34;;;;;;;14.70;3.13;;;29.90;50.60;;;;;;5073717;28;20096;-55
2022/06/17 11:25:22;;;;;;;9.02;3.00;;;30.00;51.90;;;;;;5073688;28;20074;-54
2022/06/17 11:28:17;;;;;;;11.00;3.63;;;29.90;52.30;;;;;;5073430;28;20040;-54
2022/06/17 11:31:04;;;;;;;9.45;2.92;;;29.40;51.60;;;;;;5069760;28;20119;-55
2022/06/17 11:33:53;;;;;;;7.97;4.10;;;29.50;53.40;;;;;;5072298;28;20292;-55
2022/06/17 11:36:23;;;;;;;7.32;3.00;;;29.50;54.10;;;;;;5081868;28;20063;-54
2022/06/17 11:38:50;;;;;;;3.90;2.42;;;29.60;53.40;;;;;;5073153;28;20029;-55
2022/06/17 11:41:42;;;;;;;11.38;3.33;;;29.30;53.20;;;;;;5073292;28;20028;-55
2022/06/17 11:44:17;;;;;;;4.97;3.03;;;29.60;54.80;;;;;;5072494;28;20036;-55
2022/06/17 11:47:02;;;;;;;11.43;4.47;;;29.90;53.50;;;;;;5072251;28;20028;-54
2022/06/17 11:49:34;;;;;;;14.27;4.85;;;30.00;53.40;;;;;;5064434;28;20088;-54
2022/06/17 11:52:06;;;;;;;5.00;2.92;;;30.00;52.50;;;;;;5071941;28;20265;-55
2022/06/17 11:54:49;;;;;;;5.30;3.28;;;29.80;51.90;;;;;;5073047;28;20032;-55
2022/06/17 11:57:34;;;;;;;6.72;3.15;;;29.50;54.10;;;;;;5057559;28;20039;-55
2022/06/17 12:00:04;;;;;;;5.20;3.10;;;29.60;53.90;;;;;;5076333;28;20488;-54
2022/06/17 12:02:54;;;;;;;29.58;6.40;;;29.80;55.80;;;;;;5076952;28;20510;-54
2022/06/17 12:05:30;;;;;;;7.72;3.33;;;29.90;52.40;;;;;;5077058;28;20043;-55
2022/06/17 12:07:55;;;;;;;6.38;3.10;;;29.70;53.80;;;;;;5075968;28;20020;-54
2022/06/17 12:10:49;;;;;;;8.20;3.70;;;29.60;55.00;;;;;;5076637;28;20028;-54
2022/06/17 12:13:33;;;;;;;8.93;4.40;;;30.00;55.70;;;;;;5076899;28;20489;-54
2022/06/17 12:16:19;;;;;;;5.22;2.30;;;30.20;53.00;;;;;;5076738;28;20025;-55
2022/06/17 12:18:54;;;;;;;9.85;3.90;;;30.20;50.50;;;;;;5091757;28;20060;-55
2022/06/17 12:21:40;;;;;;;8.98;3.15;;;30.30;53.30;;;;;;5076850;28;20039;-55
2022/06/17 12:24:06;;;;;;;10.38;3.40;;;30.80;51.40;;;;;;5076945;28;20075;-55
2022/06/17 12:26:59;;;;;;;5.07;2.58;;;30.80;51.60;;;;;;5075982;28;20371;-55
2022/06/17 12:29:55;;;;;;;6.53;3.00;;;31.00;49.40;;;;;;5072326;28;20021;-54
2022/06/17 12:32:47;;;;;;;12.48;3.53;;;31.20;48.90;;;;;;5076317;28;20028;-55
2022/06/17 12:35:45;;;;;;;6.65;3.90;;;31.00;49.00;;;;;;5076868;28;20089;-55
2022/06/17 12:38:26;;;;;;;7.43;3.78;;;30.90;50.80;;;;;;5073066;28;20067;-55
2022/06/17 12:41:06;;;;;;;8.27;4.07;;;30.50;50.90;;;;;;5073800;28;20020;-55
2022/06/17 12:43:47;;;;;;;;;;;30.20;48.20;;;;;;5075579;28;20264;-55
2022/06/17 12:46:23;;;;;;;17.08;4.18;;;29.90;51.70;;;;;;5066456;28;20305;-54
2022/06/17 12:55:30;;;;;;;13.10;3.60;;;29.60;50.30;;;;;;5074708;28;20070;-54
2022/06/17 12:58:00;;;;;;;14.27;4.35;;;29.90;50.00;;;;;;5075838;28;20390;-55
2022/06/17 13:01:10;;;;;;;11.13;4.07;;;29.90;51.80;;;;;;5073523;28;20081;-56
2022/06/17 13:03:57;;;;;;;4.60;2.70;;;30.30;51.70;;;;;;5064289;28;20179;-54
2022/06/17 13:06:49;;;;;;;7.43;3.15;;;30.30;51.80;;;;;;5075600;28;20021;-54
2022/06/17 13:09:30;;;;;;;8.25;4.03;;;30.30;50.90;;;;;;5074212;28;20037;-54
2022/06/17 13:12:02;;;;;;;24.85;5.97;;;30.00;52.40;;;;;;5070015;28;20459;-54
2022/06/17 13:14:34;;;;;;;12.45;5.05;;;29.70;58.10;;;;;;5073724;28;20032;-55
2022/06/17 13:17:15;;;;;;;16.02;5.00;;;29.50;56.80;;;;;;5074225;28;20549;-55
2022/06/17 13:20:09;;;;;;;25.08;6.53;;;28.80;57.70;;;;;;5075391;28;20121;-54
2022/06/17 13:22:44;;;;;;;10.95;4.30;;;28.10;60.10;;;;;;5075443;28;20157;-54
2022/06/17 13:25:28;;;;;;;9.43;4.30;;;27.70;60.60;;;;;;5072317;28;20036;-54
2022/06/17 13:28:06;;;;;;;14.55;5.65;;;27.60;61.30;;;;;;5075604;28;20053;-54
2022/06/17 13:30:54;;;;;;;8.95;3.72;;;27.30;62.60;;;;;;5073019;28;20415;-54
2022/06/17 13:33:34;;;;;;;11.77;4.50;;;26.90;59.40;;;;;;5074048;28;20449;-54
2022/06/17 13:36:06;;;;;;;10.27;3.08;;;26.50;59.30;;;;;;5068199;28;20028;-54